createdAt,value
2023-05-24T00:00:31.735Z,8.01
2023-05-24T00:01:31.745Z,7.69
2023-05-24T00:02:31.892Z,8.01
2023-05-24T00:03:32.001Z,9.62
2023-05-24T00:04:32.065Z,6.07
2023-05-24T00:05:32.082Z,6.72
2023-05-24T00:06:32.158Z,5.11
2023-05-24T00:07:32.270Z,7.69
2023-05-24T00:08:32.338Z,8.01
2023-05-24T00:09:32.390Z,8.01
2023-05-24T00:10:32.481Z,0.27
2023-05-24T00:11:32.569Z,8.01
2023-05-24T00:12:32.657Z,-1.02
2023-05-24T00:13:32.740Z,18.00
2023-05-24T00:14:32.823Z,8.01
2023-05-24T00:15:32.913Z,-0.05
2023-05-24T00:16:33.047Z,13.49
2023-05-24T00:17:33.083Z,-0.05
2023-05-24T00:18:33.145Z,4.79
2023-05-24T00:19:33.217Z,5.75
2023-05-24T00:20:33.324Z,9.30
2023-05-24T00:21:33.394Z,5.11
2023-05-24T00:22:33.474Z,13.16
2023-05-24T00:23:33.556Z,1.56
2023-05-24T00:24:33.643Z,4.14
2023-05-24T00:25:33.761Z,8.33
2023-05-24T00:26:33.783Z,8.33
2023-05-24T00:27:33.875Z,4.46
2023-05-24T00:28:33.949Z,8.33
2023-05-24T00:29:34.017Z,8.33
2023-05-24T00:30:34.091Z,6.72
2023-05-24T00:31:34.175Z,8.65
2023-05-24T00:32:34.282Z,8.33
2023-05-24T00:33:34.347Z,8.65
2023-05-24T00:34:34.423Z,5.43
2023-05-24T00:35:34.509Z,13.81
2023-05-24T00:36:34.560Z,8.65
2023-05-24T00:37:34.661Z,8.01
2023-05-24T00:38:34.760Z,8.33
2023-05-24T00:39:34.842Z,8.65
2023-05-24T00:40:34.927Z,8.01
2023-05-24T00:41:34.982Z,8.33
2023-05-24T00:42:35.070Z,12.84
2023-05-24T00:43:35.152Z,8.01
2023-05-24T00:44:35.231Z,5.43
2023-05-24T00:45:35.326Z,3.17
2023-05-24T00:46:35.425Z,6.07
2023-05-24T00:47:35.495Z,2.21
2023-05-24T00:48:35.559Z,12.84
2023-05-24T00:49:35.649Z,8.01
2023-05-24T00:50:35.741Z,8.01
2023-05-24T00:51:35.812Z,8.33
2023-05-24T00:52:35.879Z,8.01
2023-05-24T00:53:35.973Z,8.33
2023-05-24T00:54:36.034Z,15.42
2023-05-24T00:55:36.120Z,9.30
2023-05-24T00:56:36.194Z,8.33
2023-05-24T00:57:36.277Z,8.01
2023-05-24T00:58:36.370Z,11.23
2023-05-24T00:59:36.448Z,7.69
2023-05-24T01:00:36.531Z,13.49
2023-05-24T01:01:36.635Z,-0.37
2023-05-24T01:02:36.764Z,10.26
2023-05-24T01:03:36.874Z,8.33
2023-05-24T01:04:36.879Z,7.69
2023-05-24T01:05:36.991Z,7.36
2023-05-24T01:06:37.027Z,7.69
2023-05-24T01:07:37.117Z,15.10
2023-05-24T01:08:38.756Z,4.14
2023-05-24T01:09:37.315Z,7.69
2023-05-24T01:10:37.397Z,-0.05
2023-05-24T01:11:37.501Z,6.72
2023-05-24T01:12:37.564Z,8.33
2023-05-24T01:13:37.683Z,8.97
2023-05-24T01:14:37.723Z,4.79
2023-05-24T01:15:37.820Z,11.87
2023-05-24T01:16:37.940Z,7.36
2023-05-24T01:17:38.042Z,7.36
2023-05-24T01:18:38.003Z,7.69
2023-05-24T01:19:38.093Z,9.94
2023-05-24T01:20:38.624Z,11.23
2023-05-24T01:21:38.279Z,7.36
2023-05-24T01:22:38.371Z,0.92
2023-05-24T01:23:38.441Z,1.88
2023-05-24T01:24:38.527Z,8.01
2023-05-24T01:25:38.609Z,15.10
2023-05-24T01:26:38.713Z,4.14
2023-05-24T01:27:38.793Z,10.91
2023-05-24T01:28:38.896Z,14.45
2023-05-24T01:29:38.996Z,16.39
2023-05-24T01:30:39.084Z,4.79
2023-05-24T01:31:39.179Z,8.65
2023-05-24T01:32:39.283Z,7.69
2023-05-24T01:33:39.284Z,8.01
2023-05-24T01:34:39.383Z,8.01
2023-05-24T01:35:39.473Z,8.65
2023-05-24T01:36:39.564Z,8.33
2023-05-24T01:37:39.629Z,9.30
2023-05-24T01:38:39.751Z,8.33
2023-05-24T01:39:39.770Z,7.69
2023-05-24T01:40:39.937Z,8.01
2023-05-24T01:41:39.946Z,14.13
2023-05-24T01:42:40.033Z,10.91
2023-05-24T01:43:40.112Z,8.65
2023-05-24T01:44:40.202Z,7.69
2023-05-24T01:45:40.282Z,5.11
2023-05-24T01:46:40.419Z,8.65
2023-05-24T01:47:40.483Z,8.33
2023-05-24T01:48:40.517Z,7.69
2023-05-24T01:49:40.598Z,11.55
2023-05-24T01:50:40.814Z,8.97
2023-05-24T01:51:40.794Z,15.42
2023-05-24T01:52:40.876Z,8.97
2023-05-24T01:53:40.967Z,5.43
2023-05-24T01:54:41.020Z,8.33
2023-05-24T01:55:41.100Z,8.33
2023-05-24T01:56:41.182Z,8.33
2023-05-24T01:57:41.254Z,4.79
2023-05-24T01:58:41.345Z,9.94
2023-05-24T01:59:41.420Z,8.65
2023-05-24T02:00:41.942Z,11.87
2023-05-24T02:01:41.656Z,8.97
2023-05-24T02:02:41.780Z,8.65
2023-05-24T02:03:41.730Z,8.65
2023-05-24T02:04:41.816Z,8.65
2023-05-24T02:05:41.928Z,11.23
2023-05-24T02:06:41.986Z,10.91
2023-05-24T02:07:42.102Z,8.65
2023-05-24T02:08:42.141Z,7.36
2023-05-24T02:09:42.168Z,-0.37
2023-05-24T02:10:42.434Z,8.01
2023-05-24T02:11:42.320Z,9.30
2023-05-24T02:12:42.381Z,10.91
2023-05-24T02:13:42.476Z,8.33
2023-05-24T02:14:42.590Z,15.42
2023-05-24T02:15:42.614Z,6.72
2023-05-24T02:16:43.018Z,7.69
2023-05-24T02:17:42.903Z,12.52
2023-05-24T02:18:42.864Z,8.33
2023-05-24T02:19:42.966Z,4.46
2023-05-24T02:20:43.264Z,8.65
2023-05-24T02:21:43.149Z,3.82
2023-05-24T02:22:43.233Z,4.14
2023-05-24T02:23:43.305Z,10.59
2023-05-24T02:24:43.373Z,8.01
2023-05-24T02:25:43.449Z,8.33
2023-05-24T02:26:43.787Z,3.82
2023-05-24T02:27:43.617Z,-0.37
2023-05-24T02:28:43.725Z,7.69
2023-05-24T02:29:47.153Z,14.13
2023-05-24T02:30:44.195Z,8.65
2023-05-24T02:31:43.967Z,8.97
2023-05-24T02:32:44.126Z,8.01
2023-05-24T02:33:44.174Z,8.33
2023-05-24T02:34:44.232Z,1.56
2023-05-24T02:35:44.549Z,10.59
2023-05-24T02:36:44.426Z,3.82
2023-05-24T02:37:44.511Z,8.01
2023-05-24T02:38:44.607Z,8.65
2023-05-24T02:39:44.649Z,8.33
2023-05-24T02:40:44.873Z,17.35
2023-05-24T02:41:44.840Z,7.36
2023-05-24T02:42:44.853Z,13.16
2023-05-24T02:43:44.941Z,8.01
2023-05-24T02:44:45.171Z,11.23
2023-05-24T02:45:45.101Z,8.65
2023-05-24T02:46:45.233Z,7.36
2023-05-24T02:47:47.194Z,13.81
2023-05-24T02:48:45.330Z,8.01
2023-05-24T02:49:45.417Z,8.01
2023-05-24T02:50:45.549Z,7.69
2023-05-24T02:51:45.581Z,15.42
2023-05-24T02:52:45.678Z,0.60
2023-05-24T02:53:45.770Z,-1.02
2023-05-24T02:54:45.844Z,7.69
2023-05-24T02:55:45.914Z,15.10
2023-05-24T02:56:46.013Z,2.21
2023-05-24T02:57:46.055Z,8.97
2023-05-24T02:58:46.142Z,8.65
2023-05-24T02:59:47.132Z,7.69
2023-05-24T03:00:46.300Z,14.13
2023-05-24T03:01:46.412Z,8.01
2023-05-24T03:02:46.594Z,5.11
2023-05-24T03:03:46.622Z,8.33
2023-05-24T03:04:46.630Z,8.33
2023-05-24T03:05:47.167Z,8.97
2023-05-24T03:06:46.787Z,2.85
2023-05-24T03:07:46.855Z,8.33
2023-05-24T03:08:48.704Z,8.01
2023-05-24T03:09:47.003Z,17.68
2023-05-24T03:10:47.132Z,7.69
2023-05-24T03:11:47.203Z,-0.05
2023-05-24T03:12:47.239Z,8.01
2023-05-24T03:13:47.313Z,6.40
2023-05-24T03:14:49.167Z,4.46
2023-05-24T03:15:47.533Z,7.69
2023-05-24T03:16:47.546Z,8.65
2023-05-24T03:17:47.683Z,-2.30
2023-05-24T03:18:47.716Z,7.69
2023-05-24T03:19:47.927Z,8.01
2023-05-24T03:20:47.932Z,1.24
2023-05-24T03:21:47.978Z,5.75
2023-05-24T03:22:48.034Z,-2.30
2023-05-24T03:23:48.689Z,2.21
2023-05-24T03:24:48.202Z,8.65
2023-05-24T03:25:48.287Z,9.62
2023-05-24T03:26:48.371Z,7.69
2023-05-24T03:27:48.447Z,15.10
2023-05-24T03:28:48.546Z,8.65
2023-05-24T03:29:48.597Z,11.23
2023-05-24T03:30:48.688Z,8.01
2023-05-24T03:31:48.885Z,-1.02
2023-05-24T03:32:48.962Z,12.20
2023-05-24T03:33:48.950Z,14.13
2023-05-24T03:34:49.012Z,6.07
2023-05-24T03:35:49.097Z,20.25
2023-05-24T03:36:49.211Z,5.11
2023-05-24T03:37:49.267Z,6.07
2023-05-24T03:38:49.359Z,18.00
2023-05-24T03:39:49.426Z,13.81
2023-05-24T03:40:49.528Z,8.33
2023-05-24T03:41:49.625Z,7.69
2023-05-24T03:42:49.704Z,7.69
2023-05-24T03:43:49.775Z,7.36
2023-05-24T03:44:49.844Z,8.33
2023-05-24T03:45:49.949Z,8.01
2023-05-24T03:46:50.041Z,-1.66
2023-05-24T03:47:50.128Z,8.01
2023-05-24T03:48:50.170Z,16.71
2023-05-24T03:49:50.232Z,8.33
2023-05-24T03:50:50.330Z,-2.30
2023-05-24T03:51:50.394Z,7.69
2023-05-24T03:52:50.486Z,7.36
2023-05-24T03:53:50.521Z,8.01
2023-05-24T03:54:50.628Z,8.33
2023-05-24T03:55:50.670Z,8.01
2023-05-24T03:56:50.764Z,11.23
2023-05-24T03:57:50.850Z,8.65
2023-05-24T03:58:50.949Z,8.97
2023-05-24T03:59:51.053Z,6.40
2023-05-24T04:00:51.063Z,7.36
2023-05-24T04:01:51.199Z,8.01
2023-05-24T04:02:51.363Z,6.72
2023-05-24T04:03:51.430Z,12.84
2023-05-24T04:04:51.399Z,10.91
2023-05-24T04:05:51.478Z,8.33
2023-05-24T04:06:51.552Z,8.33
2023-05-24T04:07:51.630Z,8.33
2023-05-24T04:08:51.729Z,8.01
2023-05-24T04:09:51.798Z,5.43
2023-05-24T04:10:51.867Z,8.01
2023-05-24T04:11:51.959Z,3.82
2023-05-24T04:12:52.054Z,14.45
2023-05-24T04:13:52.145Z,13.16
2023-05-24T04:14:52.256Z,8.65
2023-05-24T04:15:52.308Z,8.97
2023-05-24T04:16:52.417Z,1.24
2023-05-24T04:17:52.499Z,12.20
2023-05-24T04:18:52.673Z,-1.02
2023-05-24T04:19:52.635Z,8.33
2023-05-24T04:20:52.718Z,-0.37
2023-05-24T04:21:52.775Z,12.84
2023-05-24T04:22:52.864Z,8.33
2023-05-24T04:23:52.946Z,8.65
2023-05-24T04:24:53.141Z,6.07
2023-05-24T04:25:53.130Z,9.62
2023-05-24T04:26:53.187Z,8.97
2023-05-24T04:27:53.285Z,9.30
2023-05-24T04:28:53.399Z,10.26
2023-05-24T04:29:53.457Z,-1.66
2023-05-24T04:30:53.560Z,20.25
2023-05-24T04:31:53.722Z,8.33
2023-05-24T04:32:53.832Z,8.97
2023-05-24T04:33:53.834Z,9.30
2023-05-24T04:34:53.922Z,8.65
2023-05-24T04:35:54.042Z,9.30
2023-05-24T04:36:54.062Z,5.75
2023-05-24T04:37:54.152Z,8.33
2023-05-24T04:38:54.237Z,8.97
2023-05-24T04:39:54.342Z,11.23
2023-05-24T04:40:54.388Z,17.35
2023-05-24T04:41:54.448Z,17.68
2023-05-24T04:42:54.553Z,8.65
2023-05-24T04:43:54.624Z,8.97
2023-05-24T04:44:54.708Z,8.97
2023-05-24T04:45:54.786Z,8.97
2023-05-24T04:46:54.946Z,8.97
2023-05-24T04:47:54.950Z,0.27
2023-05-24T04:48:55.005Z,11.87
2023-05-24T04:49:55.095Z,8.97
2023-05-24T04:50:55.179Z,12.84
2023-05-24T04:51:55.373Z,9.94
2023-05-24T04:52:55.346Z,9.62
2023-05-24T04:53:55.422Z,-0.37
2023-05-24T04:54:55.523Z,2.21
2023-05-24T04:55:55.585Z,2.21
2023-05-24T04:56:55.665Z,8.65
2023-05-24T04:57:55.750Z,17.35
2023-05-24T04:58:55.835Z,9.30
2023-05-24T04:59:55.925Z,9.30
2023-05-24T05:00:56.009Z,8.65
2023-05-24T05:01:56.135Z,14.78
2023-05-24T05:02:56.330Z,14.78
2023-05-24T05:03:56.259Z,21.22
2023-05-24T05:04:56.324Z,-1.66
2023-05-24T05:05:56.407Z,12.20
2023-05-24T05:06:56.527Z,8.97
2023-05-24T05:07:56.585Z,9.30
2023-05-24T05:08:56.664Z,8.97
2023-05-24T05:09:56.769Z,8.65
2023-05-24T05:10:56.830Z,1.56
2023-05-24T05:11:56.906Z,-0.69
2023-05-24T05:12:57.019Z,8.65
2023-05-24T05:13:57.067Z,9.62
2023-05-24T05:14:57.145Z,-0.69
2023-05-24T05:15:57.308Z,8.97
2023-05-24T05:16:57.340Z,8.65
2023-05-24T05:17:57.538Z,10.59
2023-05-24T05:18:57.429Z,6.40
2023-05-24T05:19:57.565Z,6.72
2023-05-24T05:20:57.610Z,18.00
2023-05-24T05:21:57.698Z,16.06
2023-05-24T05:22:57.812Z,9.94
2023-05-24T05:23:57.914Z,10.26
2023-05-24T05:24:57.941Z,9.62
2023-05-24T05:25:58.035Z,8.33
2023-05-24T05:26:58.129Z,8.65
2023-05-24T05:27:58.193Z,8.97
2023-05-24T05:28:58.313Z,9.94
2023-05-24T05:29:58.396Z,9.62
2023-05-24T05:30:58.451Z,9.30
2023-05-24T05:31:58.569Z,9.30
2023-05-24T05:32:58.909Z,9.30
2023-05-24T05:33:58.739Z,10.91
2023-05-24T05:34:58.775Z,10.59
2023-05-24T05:35:58.852Z,8.65
2023-05-24T05:36:58.947Z,10.26
2023-05-24T05:37:59.022Z,10.26
2023-05-24T05:38:59.067Z,10.59
2023-05-24T05:39:59.188Z,10.91
2023-05-24T05:40:59.249Z,7.36
2023-05-24T05:41:59.320Z,11.23
2023-05-24T05:42:59.385Z,10.59
2023-05-24T05:43:59.475Z,11.55
2023-05-24T05:44:59.544Z,10.91
2023-05-24T05:45:59.650Z,11.23
2023-05-24T05:46:59.678Z,11.23
2023-05-24T05:47:59.855Z,11.55
2023-05-24T05:48:59.874Z,17.03
2023-05-24T05:49:59.930Z,10.59
2023-05-24T05:51:00.037Z,3.82
2023-05-24T05:52:00.157Z,8.97
2023-05-24T05:53:01.729Z,10.91
2023-05-24T05:54:00.254Z,11.23
2023-05-24T05:55:00.312Z,11.87
2023-05-24T05:56:00.665Z,11.55
2023-05-24T05:57:01.639Z,13.81
2023-05-24T05:58:00.563Z,11.55
2023-05-24T05:59:01.372Z,18.00
2023-05-24T06:00:00.733Z,18.64
2023-05-24T06:01:00.836Z,11.23
2023-05-24T06:02:02.497Z,12.84
2023-05-24T06:03:01.031Z,3.82
2023-05-24T06:04:01.071Z,3.50
2023-05-24T06:05:01.699Z,11.23
2023-05-24T06:06:01.143Z,11.87
2023-05-24T06:07:01.339Z,11.55
2023-05-24T06:08:02.207Z,6.40
2023-05-24T06:09:01.360Z,11.55
2023-05-24T06:10:01.441Z,12.20
2023-05-24T06:11:03.227Z,11.87
2023-05-24T06:12:01.600Z,12.20
2023-05-24T06:13:01.714Z,11.23
2023-05-24T06:14:04.737Z,11.87
2023-05-24T06:15:01.881Z,12.20
2023-05-24T06:16:01.978Z,11.87
2023-05-24T06:17:02.759Z,7.36
2023-05-24T06:18:02.381Z,12.20
2023-05-24T06:19:06.332Z,19.61
2023-05-24T06:20:07.546Z,11.87
2023-05-24T06:21:02.419Z,12.20
2023-05-24T06:22:02.496Z,11.55
2023-05-24T06:23:16.702Z,9.94
2023-05-24T06:24:02.780Z,12.20
2023-05-24T06:25:02.751Z,12.52
2023-05-24T06:26:03.139Z,20.58
2023-05-24T06:27:05.144Z,4.79
2023-05-24T06:28:03.036Z,14.13
2023-05-24T06:29:03.725Z,20.58
2023-05-24T06:30:03.269Z,8.97
2023-05-24T06:31:03.301Z,13.49
2023-05-24T06:32:04.417Z,16.39
2023-05-24T06:33:03.552Z,14.45
2023-05-24T06:34:04.612Z,14.13
2023-05-24T06:35:08.244Z,13.81
2023-05-24T06:36:03.729Z,12.84
2023-05-24T06:37:03.826Z,14.78
2023-05-24T06:38:04.106Z,6.72
2023-05-24T06:39:03.960Z,14.78
2023-05-24T06:40:04.115Z,23.15
2023-05-24T06:41:07.813Z,22.83
2023-05-24T06:42:04.216Z,22.83
2023-05-24T06:43:04.268Z,11.87
2023-05-24T06:44:06.235Z,16.39
2023-05-24T06:45:04.405Z,11.23
2023-05-24T06:46:04.460Z,15.74
2023-05-24T06:47:06.261Z,15.10
2023-05-24T06:48:04.660Z,16.06
2023-05-24T06:49:04.783Z,18.64
2023-05-24T06:50:05.267Z,8.33
2023-05-24T06:51:04.783Z,15.74
2023-05-24T06:52:04.851Z,7.04
2023-05-24T06:53:04.989Z,23.80
2023-05-24T06:54:05.045Z,25.09
2023-05-24T06:55:05.096Z,12.20
2023-05-24T06:56:05.194Z,16.06
2023-05-24T06:57:05.303Z,15.10
2023-05-24T06:58:05.332Z,20.90
2023-05-24T06:59:05.461Z,16.39
2023-05-24T07:00:05.531Z,8.33
2023-05-24T07:01:05.655Z,8.33
2023-05-24T07:02:05.689Z,15.74
2023-05-24T07:03:05.790Z,18.64
2023-05-24T07:04:05.970Z,15.42
2023-05-24T07:05:06.007Z,14.13
2023-05-24T07:06:06.036Z,18.64
2023-05-24T07:07:06.116Z,22.19
2023-05-24T07:08:06.220Z,15.74
2023-05-24T07:09:06.330Z,15.74
2023-05-24T07:10:06.420Z,19.29
2023-05-24T07:11:06.467Z,13.16
2023-05-24T07:12:08.919Z,16.06
2023-05-24T07:13:06.643Z,15.74
2023-05-24T07:14:06.713Z,19.29
2023-05-24T07:15:06.799Z,22.83
2023-05-24T07:16:06.907Z,23.80
2023-05-24T07:17:07.001Z,17.68
2023-05-24T07:18:07.100Z,18.96
2023-05-24T07:19:07.140Z,19.61
2023-05-24T07:20:07.277Z,20.25
2023-05-24T07:21:07.359Z,29.28
2023-05-24T07:22:07.421Z,21.22
2023-05-24T07:23:07.459Z,19.61
2023-05-24T07:24:07.533Z,20.25
2023-05-24T07:25:07.582Z,19.61
2023-05-24T07:26:07.682Z,19.61
2023-05-24T07:27:07.750Z,18.64
2023-05-24T07:28:07.777Z,19.29
2023-05-24T07:29:07.902Z,18.32
2023-05-24T07:30:13.845Z,14.13
2023-05-24T07:31:08.315Z,18.64
2023-05-24T07:32:08.168Z,26.70
2023-05-24T07:33:08.268Z,10.59
2023-05-24T07:34:08.318Z,13.16
2023-05-24T07:35:08.391Z,18.32
2023-05-24T07:36:08.491Z,29.60
2023-05-24T07:37:08.580Z,26.70
2023-05-24T07:38:08.679Z,20.90
2023-05-24T07:39:08.768Z,23.80
2023-05-24T07:40:08.886Z,21.87
2023-05-24T07:41:08.928Z,20.25
2023-05-24T07:42:09.042Z,22.51
2023-05-24T07:43:09.111Z,21.87
2023-05-24T07:44:09.183Z,20.58
2023-05-24T07:45:09.231Z,21.87
2023-05-24T07:46:09.364Z,14.78
2023-05-24T07:47:09.414Z,21.22
2023-05-24T07:48:09.538Z,20.90
2023-05-24T07:49:09.540Z,27.02
2023-05-24T07:50:09.639Z,20.58
2023-05-24T07:51:09.739Z,13.16
2023-05-24T07:52:09.811Z,19.29
2023-05-24T07:53:09.876Z,21.54
2023-05-24T07:54:09.961Z,18.96
2023-05-24T07:55:10.046Z,17.68
2023-05-24T07:56:10.103Z,18.96
2023-05-24T07:57:10.190Z,14.78
2023-05-24T07:58:10.261Z,23.48
2023-05-24T07:59:10.322Z,20.25
2023-05-24T08:00:17.528Z,18.00
2023-05-24T08:01:13.228Z,14.78
2023-05-24T08:02:10.517Z,10.26
2023-05-24T08:03:10.682Z,18.32
2023-05-24T08:04:10.711Z,17.68
2023-05-24T08:05:10.757Z,17.68
2023-05-24T08:06:10.839Z,18.00
2023-05-24T08:07:11.149Z,18.32
2023-05-24T08:08:11.012Z,18.00
2023-05-24T08:09:11.088Z,22.19
2023-05-24T08:10:11.135Z,17.03
2023-05-24T08:11:11.309Z,18.00
2023-05-24T08:12:11.341Z,24.77
2023-05-24T08:13:11.406Z,18.96
2023-05-24T08:14:11.517Z,15.74
2023-05-24T08:15:11.575Z,13.49
2023-05-24T08:16:11.689Z,11.55
2023-05-24T08:17:11.736Z,22.83
2023-05-24T08:18:11.850Z,13.81
2023-05-24T08:19:11.857Z,21.87
2023-05-24T08:20:11.951Z,26.38
2023-05-24T08:21:12.017Z,19.61
2023-05-24T08:22:12.085Z,21.87
2023-05-24T08:23:12.151Z,12.52
2023-05-24T08:24:12.243Z,21.54
2023-05-24T08:25:12.306Z,15.74
2023-05-24T08:26:12.344Z,21.87
2023-05-24T08:27:12.450Z,20.90
2023-05-24T08:28:12.558Z,26.05
2023-05-24T08:29:12.633Z,20.90
2023-05-24T08:30:12.702Z,16.39
2023-05-24T08:31:12.837Z,19.93
2023-05-24T08:32:12.897Z,20.90
2023-05-24T08:33:12.977Z,19.61
2023-05-24T08:34:12.986Z,21.54
2023-05-24T08:35:21.055Z,18.64
2023-05-24T08:36:13.170Z,19.61
2023-05-24T08:37:14.842Z,14.13
2023-05-24T08:38:13.402Z,17.68
2023-05-24T08:39:13.375Z,21.87
2023-05-24T08:40:13.497Z,13.16
2023-05-24T08:41:13.543Z,25.41
2023-05-24T08:42:13.601Z,20.58
2023-05-24T08:43:13.703Z,20.90
2023-05-24T08:44:13.787Z,20.58
2023-05-24T08:45:13.922Z,24.12
2023-05-24T08:48:34.391Z,21.87
2023-05-24T08:49:34.776Z,21.22
2023-05-24T08:50:35.512Z,18.64
2023-05-24T08:51:35.016Z,20.90
2023-05-24T08:52:35.022Z,20.90
2023-05-24T08:53:35.080Z,23.80
2023-05-24T08:54:35.176Z,27.02
2023-05-24T08:55:35.287Z,24.12
2023-05-24T08:56:35.312Z,30.57
2023-05-24T08:57:35.404Z,28.63
2023-05-24T08:58:35.476Z,29.28
2023-05-24T08:59:35.542Z,23.15
2023-05-24T09:00:35.635Z,20.25
2023-05-24T09:01:36.804Z,21.54
2023-05-24T09:02:35.867Z,21.54
2023-05-24T09:03:35.941Z,20.25
2023-05-24T09:04:42.506Z,18.32
2023-05-24T09:05:36.057Z,18.96
2023-05-24T09:06:36.258Z,18.64
2023-05-24T09:07:36.211Z,18.32
2023-05-24T09:08:36.265Z,18.00
2023-05-24T09:09:36.326Z,17.35
2023-05-24T09:10:49.400Z,18.00
2023-05-24T09:11:39.393Z,19.29
2023-05-24T09:12:38.673Z,17.35
2023-05-24T09:13:36.676Z,18.64
2023-05-24T09:14:36.781Z,18.32
2023-05-24T09:15:36.830Z,18.64
2023-05-24T09:16:37.020Z,16.71
2023-05-24T09:17:37.251Z,18.96
2023-05-24T09:18:37.027Z,16.39
2023-05-24T09:19:37.112Z,19.29
2023-05-24T09:20:37.268Z,18.96
2023-05-24T09:21:37.340Z,17.68
2023-05-24T09:22:40.375Z,19.93
2023-05-24T09:23:37.469Z,29.60
2023-05-24T09:24:37.557Z,20.58
2023-05-24T09:25:37.607Z,21.54
2023-05-24T09:26:37.670Z,17.68
2023-05-24T09:27:37.886Z,20.90
2023-05-24T09:28:37.873Z,27.34
2023-05-24T09:29:38.023Z,24.12
2023-05-24T09:30:38.036Z,32.50
2023-05-24T09:31:38.855Z,24.12
2023-05-24T09:32:38.383Z,18.96
2023-05-24T09:33:38.251Z,22.83
2023-05-24T09:34:38.353Z,32.18
2023-05-24T09:35:38.413Z,27.99
2023-05-24T09:36:38.479Z,27.67
2023-05-24T09:37:38.668Z,20.58
2023-05-24T09:38:38.616Z,16.71
2023-05-24T09:39:38.697Z,15.10
2023-05-24T09:40:38.794Z,19.61
2023-05-24T09:41:39.020Z,18.96
2023-05-24T09:42:39.055Z,18.00
2023-05-24T09:43:46.581Z,26.70
2023-05-24T09:44:39.318Z,18.00
2023-05-24T09:45:39.238Z,12.84
2023-05-24T09:46:39.334Z,24.12
2023-05-24T09:47:39.412Z,18.00
2023-05-24T09:48:39.470Z,18.64
2023-05-24T09:49:39.586Z,11.23
2023-05-24T09:50:39.689Z,24.12
2023-05-24T09:51:39.763Z,18.32
2023-05-24T09:52:43.921Z,23.48
2023-05-24T09:53:39.864Z,17.35
2023-05-24T09:54:39.967Z,8.97
2023-05-24T09:55:40.081Z,26.70
2023-05-24T09:56:40.158Z,18.64
2023-05-24T09:57:40.253Z,23.15
2023-05-24T09:58:40.321Z,11.87
2023-05-24T09:59:40.418Z,19.93
2023-05-24T10:00:40.582Z,10.59
2023-05-24T10:01:40.630Z,14.45
2023-05-24T10:02:51.707Z,24.12
2023-05-24T10:03:40.830Z,27.34
2023-05-24T10:04:40.880Z,22.83
2023-05-24T10:05:40.927Z,23.80
2023-05-24T10:06:41.002Z,28.63
2023-05-24T10:07:41.116Z,24.12
2023-05-24T10:08:41.243Z,18.64
2023-05-24T10:09:41.354Z,19.29
2023-05-24T10:10:41.640Z,24.77
2023-05-24T10:11:41.457Z,26.38
2023-05-24T10:12:41.513Z,32.18
2023-05-24T10:13:41.601Z,21.87
2023-05-24T10:14:41.728Z,25.73
2023-05-24T10:15:41.740Z,25.09
2023-05-24T10:16:41.844Z,24.44
2023-05-24T10:17:41.911Z,24.44
2023-05-24T10:18:41.964Z,27.34
2023-05-24T10:19:42.074Z,20.90
2023-05-24T10:20:42.641Z,22.83
2023-05-24T10:21:42.277Z,20.90
2023-05-24T10:22:42.281Z,29.28
2023-05-24T10:23:43.132Z,21.87
2023-05-24T10:24:42.452Z,20.90
2023-05-24T10:25:42.516Z,19.29
2023-05-24T10:26:42.611Z,21.22
2023-05-24T10:27:42.631Z,17.68
2023-05-24T10:28:42.740Z,12.84
2023-05-24T10:29:42.836Z,29.60
2023-05-24T10:30:43.456Z,23.48
2023-05-24T10:31:43.027Z,21.22
2023-05-24T10:32:43.096Z,16.71
2023-05-24T10:33:43.109Z,18.64
2023-05-24T10:34:43.195Z,19.93
2023-05-24T10:35:43.273Z,18.96
2023-05-24T10:36:43.315Z,19.29
2023-05-24T10:37:43.441Z,20.25
2023-05-24T10:38:43.480Z,19.93
2023-05-24T10:39:43.581Z,19.93
2023-05-24T10:40:43.646Z,20.58
2023-05-24T10:41:43.702Z,24.44
2023-05-24T10:42:43.791Z,22.19
2023-05-24T10:43:44.012Z,15.42
2023-05-24T10:44:43.969Z,19.93
2023-05-24T10:45:44.029Z,26.05
2023-05-24T10:46:44.140Z,21.54
2023-05-24T10:47:44.221Z,30.57
2023-05-24T10:48:44.249Z,13.81
2023-05-24T10:49:44.310Z,26.05
2023-05-24T10:50:44.814Z,18.32
2023-05-24T10:51:44.528Z,24.44
2023-05-24T10:52:44.568Z,21.22
2023-05-24T10:53:44.665Z,31.86
2023-05-24T10:54:52.662Z,24.44
2023-05-24T10:55:44.934Z,24.77
2023-05-24T10:56:44.921Z,24.77
2023-05-24T10:57:44.951Z,24.77
2023-05-24T10:58:45.048Z,22.83
2023-05-24T10:59:45.113Z,29.28
2023-05-24T11:00:45.180Z,21.54
2023-05-24T11:01:45.343Z,21.54
2023-05-24T11:02:45.351Z,18.96
2023-05-24T11:03:45.404Z,11.87
2023-05-24T11:04:45.447Z,20.25
2023-05-24T11:05:46.684Z,20.58
2023-05-24T11:06:45.620Z,16.06
2023-05-24T11:07:45.694Z,16.71
2023-05-24T11:08:45.796Z,20.25
2023-05-24T11:09:45.855Z,20.25
2023-05-24T11:10:46.637Z,20.58
2023-05-24T11:11:46.022Z,30.24
2023-05-24T11:12:46.114Z,21.54
2023-05-24T11:13:46.243Z,20.58
2023-05-24T11:14:46.234Z,19.93
2023-05-24T11:15:46.417Z,27.02
2023-05-24T11:16:46.508Z,20.25
2023-05-24T11:17:46.513Z,21.22
2023-05-24T11:18:46.638Z,22.19
2023-05-24T11:19:46.632Z,20.90
2023-05-24T11:20:47.083Z,21.54
2023-05-24T11:21:47.255Z,21.54
2023-05-24T11:22:46.910Z,25.09
2023-05-24T11:23:46.966Z,20.58
2023-05-24T11:24:47.069Z,11.87
2023-05-24T11:25:47.135Z,24.12
2023-05-24T11:26:47.248Z,24.12
2023-05-24T11:27:47.339Z,23.48
2023-05-24T11:28:47.357Z,27.02
2023-05-24T11:29:47.529Z,24.44
2023-05-24T11:30:49.129Z,32.18
2023-05-24T11:31:47.761Z,32.18
2023-05-24T11:32:47.817Z,17.35
2023-05-24T11:34:01.835Z,25.41
2023-05-24T11:34:47.814Z,26.05
2023-05-24T11:35:47.912Z,26.38
2023-05-24T11:36:55.185Z,24.77
2023-05-24T11:37:48.127Z,27.34
2023-05-24T11:38:48.160Z,25.41
2023-05-24T11:39:51.653Z,22.51
2023-05-24T11:40:48.290Z,33.47
2023-05-24T11:41:48.361Z,26.05
2023-05-24T11:43:02.467Z,26.05
2023-05-24T11:43:48.532Z,22.83
2023-05-24T11:44:48.616Z,31.53
2023-05-24T11:46:03.217Z,23.80
2023-05-24T11:46:48.786Z,23.80
2023-05-24T11:47:48.950Z,24.44
2023-05-24T11:49:03.187Z,24.77
2023-05-24T11:49:48.989Z,34.43
2023-05-24T11:50:50.146Z,24.12
2023-05-24T11:52:03.263Z,29.60
2023-05-24T11:52:49.286Z,25.41
2023-05-24T11:53:50.375Z,33.14
2023-05-24T11:55:00.370Z,33.79
2023-05-24T11:55:49.460Z,16.71
2023-05-24T11:56:49.610Z,18.64
2023-05-24T11:58:00.348Z,20.90
2023-05-24T11:58:49.714Z,28.63
2023-05-24T11:59:49.795Z,35.08
2023-05-24T12:01:00.809Z,27.34
2023-05-24T12:01:49.966Z,27.02
2023-05-24T12:02:50.125Z,26.70
2023-05-24T12:04:00.952Z,27.34
2023-05-24T12:04:50.224Z,27.67
2023-05-24T12:05:50.255Z,27.67
2023-05-24T12:06:59.537Z,24.12
2023-05-24T12:07:50.411Z,29.28
2023-05-24T12:08:50.489Z,27.02
2023-05-24T12:09:58.674Z,26.70
2023-05-24T12:10:50.615Z,26.05
2023-05-24T12:11:50.735Z,27.67
2023-05-24T12:12:57.715Z,20.90
2023-05-24T12:13:50.856Z,26.38
2023-05-24T12:14:50.991Z,30.89
2023-05-24T12:15:56.802Z,26.70
2023-05-24T12:16:51.120Z,28.96
2023-05-24T12:17:51.226Z,29.60
2023-05-24T12:19:03.768Z,31.53
2023-05-24T12:19:51.324Z,31.21
2023-05-24T12:20:51.404Z,33.14
2023-05-24T12:21:54.427Z,40.88
2023-05-24T12:22:51.603Z,31.86
2023-05-24T12:23:51.616Z,32.82
2023-05-24T12:24:54.728Z,32.18
2023-05-24T12:25:51.808Z,37.98
2023-05-24T12:26:51.895Z,32.50
2023-05-24T12:27:54.442Z,28.96
2023-05-24T12:28:52.041Z,21.54
2023-05-24T12:29:52.110Z,28.96
2023-05-24T12:30:52.258Z,28.96
2023-05-24T12:31:52.372Z,28.96
2023-05-24T12:32:52.427Z,37.01
2023-05-24T12:33:54.327Z,23.80
2023-05-24T12:34:52.563Z,33.79
2023-05-24T12:35:52.645Z,36.69
2023-05-24T12:36:52.718Z,19.29
2023-05-24T12:37:52.794Z,27.34
2023-05-24T12:38:52.952Z,27.34
2023-05-24T12:39:54.679Z,27.02
2023-05-24T12:41:08.265Z,27.34
2023-05-24T12:41:53.167Z,33.47
2023-05-24T12:42:53.228Z,26.38
2023-05-24T12:43:53.302Z,30.24
2023-05-24T12:44:53.367Z,23.15
2023-05-24T12:45:54.554Z,21.87
2023-05-24T12:46:53.564Z,27.34
2023-05-24T12:47:53.662Z,24.77
2023-05-24T12:48:53.695Z,25.09
2023-05-24T12:49:53.762Z,31.21
2023-05-24T12:50:53.826Z,15.42
2023-05-24T12:51:53.912Z,24.44
2023-05-24T12:52:53.970Z,17.03
2023-05-24T12:53:54.164Z,23.48
2023-05-24T12:54:54.179Z,18.64
2023-05-24T12:55:54.254Z,24.12
2023-05-24T12:56:56.315Z,23.48
2023-05-24T12:57:54.364Z,23.15
2023-05-24T12:58:54.445Z,29.92
2023-05-24T12:59:54.567Z,24.12
2023-05-24T13:00:54.679Z,19.61
2023-05-24T13:01:54.739Z,25.73
2023-05-24T13:02:54.858Z,32.50
2023-05-24T13:03:54.938Z,26.70
2023-05-24T13:04:54.900Z,25.09